createdAt,value
2018-11-07T05:03:14.092Z,42.03
2018-11-07T05:05:43.659Z,28.02
2018-11-07T05:08:13.201Z,47.47
2018-11-07T05:10:42.976Z,38.00
2018-11-07T05:13:12.545Z,31.82
2018-11-07T05:15:42.251Z,36.20
2018-11-07T05:18:11.923Z,41.08
2018-11-07T05:20:41.517Z,35.88
2018-11-07T05:23:11.040Z,51.25
2018-11-07T05:25:40.661Z,30.20
2018-11-07T05:28:10.195Z,33.38
2018-11-07T05:30:39.762Z,38.63
2018-11-07T05:33:09.405Z,44.85
2018-11-07T05:35:39.162Z,45.60
2018-11-07T05:38:08.822Z,36.30
2018-11-07T05:40:38.610Z,48.43
2018-11-07T05:43:08.231Z,50.25
2018-11-07T05:45:37.758Z,52.40
2018-11-07T05:48:07.265Z,51.35
2018-11-07T05:50:36.743Z,52.00
2018-11-07T05:53:06.867Z,43.13
2018-11-07T05:55:36.380Z,49.15
2018-11-07T05:58:05.992Z,41.13
2018-11-07T06:00:35.527Z,45.88
2018-11-07T06:03:05.049Z,45.90
2018-11-07T06:05:34.595Z,42.75
2018-11-07T06:08:04.057Z,53.13
2018-11-07T06:10:33.502Z,39.40
2018-11-07T06:13:03.012Z,40.55
2018-11-07T06:15:32.481Z,44.33
2018-11-07T06:18:01.952Z,46.13
2018-11-07T06:20:31.436Z,40.70
2018-11-07T06:23:01.029Z,49.53
2018-11-07T06:25:30.504Z,66.42
2018-11-07T06:27:59.932Z,48.33
2018-11-07T06:30:29.492Z,48.48
2018-11-07T06:32:58.946Z,46.93
2018-11-07T06:35:28.379Z,51.65
2018-11-07T06:37:58.004Z,42.05
2018-11-07T06:40:27.488Z,80.25
2018-11-07T06:42:57.020Z,49.33
2018-11-07T06:45:26.639Z,50.40
2018-11-07T06:47:56.151Z,45.30
2018-11-07T06:50:25.711Z,50.17
2018-11-07T06:52:55.292Z,43.75
2018-11-07T06:55:24.785Z,46.47
2018-11-07T06:57:54.285Z,38.58
2018-11-07T07:00:23.779Z,44.75
2018-11-07T07:02:53.358Z,37.60
2018-11-07T07:05:22.866Z,49.75
2018-11-07T07:07:52.359Z,48.17
2018-11-07T07:10:21.855Z,44.40
2018-11-07T07:12:51.350Z,32.60
2018-11-07T07:15:20.860Z,40.00
2018-11-07T07:17:50.402Z,41.60
2018-11-07T07:20:21.047Z,61.97
2018-11-07T07:22:50.850Z,81.22
2018-11-07T07:25:20.316Z,47.38
2018-11-07T07:27:49.792Z,42.23
2018-11-07T07:30:20.722Z,35.70
2018-11-07T07:32:50.783Z,43.90
2018-11-07T07:35:20.618Z,35.25
2018-11-07T07:37:50.335Z,34.05
2018-11-07T07:40:20.116Z,53.13
2018-11-07T07:42:49.703Z,46.85
2018-11-07T07:45:20.987Z,35.55
2018-11-07T07:47:50.714Z,41.37
2018-11-07T07:50:20.811Z,38.93
2018-11-07T07:52:50.620Z,39.80
2018-11-07T07:55:20.474Z,44.83
2018-11-07T07:57:50.074Z,34.95
2018-11-07T08:00:20.645Z,35.53
2018-11-07T08:02:52.234Z,43.13
2018-11-07T08:05:22.040Z,33.88
2018-11-07T08:07:51.597Z,43.02
2018-11-07T08:10:22.208Z,37.63
2018-11-07T08:12:52.287Z,31.23
2018-11-07T08:15:21.939Z,34.88
2018-11-07T08:17:51.580Z,31.90
2018-11-07T08:20:21.148Z,39.20
2018-11-07T08:22:50.655Z,38.90
2018-11-07T08:25:20.182Z,29.80
2018-11-07T08:27:49.653Z,48.80
2018-11-07T08:30:20.560Z,36.45
2018-11-07T08:32:50.036Z,38.13
2018-11-07T08:35:19.515Z,43.20
2018-11-07T08:37:49.170Z,43.08
2018-11-07T08:40:20.213Z,34.10
2018-11-07T08:42:50.088Z,34.85
2018-11-07T08:45:19.580Z,37.17
2018-11-07T08:47:49.281Z,36.17
2018-11-07T08:50:20.088Z,36.60
2018-11-07T08:52:49.928Z,36.53
2018-11-07T08:55:21.589Z,35.80
2018-11-07T08:57:51.274Z,37.60
2018-11-07T09:00:23.863Z,34.95
2018-11-07T09:02:53.381Z,35.43
2018-11-07T09:05:23.559Z,39.18
2018-11-07T09:07:53.157Z,38.88
2018-11-07T09:10:23.717Z,32.98
2018-11-07T09:12:53.192Z,36.30
2018-11-07T09:15:23.551Z,41.45
2018-11-07T09:17:53.099Z,32.83
2018-11-07T09:20:23.639Z,36.87
2018-11-07T09:22:53.234Z,43.70
2018-11-07T09:25:22.728Z,37.58
2018-11-07T09:27:52.304Z,33.05
2018-11-07T09:30:22.904Z,36.23
2018-11-07T09:32:52.572Z,40.85
2018-11-07T09:35:22.417Z,32.33
2018-11-07T09:37:51.887Z,30.08
2018-11-07T09:40:22.027Z,34.23
2018-11-07T09:42:51.672Z,33.48
2018-11-07T09:45:22.281Z,34.15
2018-11-07T09:47:51.800Z,35.68
2018-11-07T09:50:21.305Z,28.13
2018-11-07T09:52:50.730Z,35.40
2018-11-07T09:55:21.301Z,33.80
2018-11-07T09:57:56.949Z,26.80
2018-11-07T10:00:26.499Z,35.38
2018-11-07T10:02:56.032Z,35.03
2018-11-07T10:05:25.474Z,29.07
2018-11-07T10:07:55.165Z,25.97
2018-11-07T10:10:24.645Z,32.15
2018-11-07T10:12:54.147Z,32.10
2018-11-07T10:15:23.745Z,31.10
2018-11-07T10:17:53.234Z,31.12
2018-11-07T10:20:23.953Z,22.87
2018-11-07T10:22:53.423Z,27.80
2018-11-07T10:25:22.912Z,27.10
2018-11-07T10:27:52.958Z,32.58
2018-11-07T10:30:22.413Z,26.48
2018-11-07T10:32:52.351Z,29.60
2018-11-07T10:35:21.853Z,32.17
2018-11-07T10:37:51.285Z,22.23
2018-11-07T10:40:22.296Z,26.55
2018-11-07T10:42:51.882Z,29.07
2018-11-07T10:45:21.554Z,25.52
2018-11-07T10:47:51.587Z,29.37
2018-11-07T10:50:22.025Z,24.23
2018-11-07T10:52:51.759Z,30.72
2018-11-07T10:55:21.268Z,24.75
2018-11-07T10:57:50.705Z,23.80
2018-11-07T11:00:25.503Z,25.52
2018-11-07T11:03:00.099Z,25.43
2018-11-07T11:05:29.643Z,19.42
2018-11-07T11:07:59.112Z,19.40
2018-11-07T11:10:28.599Z,22.30
2018-11-07T11:12:58.102Z,18.27
2018-11-07T11:15:27.561Z,17.85
2018-11-07T11:17:56.964Z,18.00
2018-11-07T11:20:26.618Z,15.20
2018-11-07T11:22:56.160Z,20.92
2018-11-07T11:25:25.643Z,15.88
2018-11-07T11:27:55.110Z,13.33
2018-11-07T11:30:24.577Z,17.95
2018-11-07T11:32:54.048Z,15.90
2018-11-07T11:35:23.586Z,23.95
2018-11-07T11:37:52.980Z,14.53
2018-11-07T11:40:22.475Z,18.10
2018-11-07T11:42:51.952Z,17.95
2018-11-07T11:45:21.448Z,13.37
2018-11-07T11:47:50.947Z,11.88
2018-11-07T11:50:21.380Z,16.97
2018-11-07T11:52:50.983Z,16.05
2018-11-07T11:55:20.484Z,13.98
2018-11-07T11:57:50.045Z,17.05
2018-11-07T12:00:20.532Z,19.15
2018-11-07T12:02:50.121Z,12.98
2018-11-07T12:05:20.236Z,13.30
2018-11-07T12:07:49.708Z,14.25
2018-11-07T12:10:20.489Z,16.00
2018-11-07T12:12:51.321Z,14.70
2018-11-07T12:15:21.912Z,14.93
2018-11-07T12:17:51.567Z,13.88
2018-11-07T12:20:21.080Z,10.08
2018-11-07T12:22:50.704Z,14.13
2018-11-07T12:25:21.038Z,15.40
2018-11-07T12:27:50.665Z,11.73
2018-11-07T12:30:21.608Z,14.60
2018-11-07T12:32:52.332Z,14.78
2018-11-07T12:35:22.210Z,7.80
2018-11-07T12:37:51.704Z,12.90
2018-11-07T12:40:21.544Z,10.28
2018-11-07T12:42:51.094Z,12.40
2018-11-07T12:45:20.513Z,12.27
2018-11-07T12:47:49.942Z,12.10
2018-11-07T12:50:20.920Z,10.18
2018-11-07T12:52:50.387Z,11.70
2018-11-07T12:55:21.097Z,23.98
2018-11-07T12:57:50.669Z,8.23
2018-11-07T13:00:22.518Z,7.65
2018-11-07T13:02:52.055Z,11.63
2018-11-07T13:05:22.360Z,13.53
2018-11-07T13:07:52.642Z,10.25
2018-11-07T13:10:22.871Z,10.05
2018-11-07T13:12:52.854Z,9.85
2018-11-07T13:15:22.368Z,7.42
2018-11-07T13:17:52.514Z,6.05
2018-11-07T13:20:24.642Z,8.50
2018-11-07T13:22:54.758Z,11.28
2018-11-07T13:25:25.073Z,7.75
2018-11-07T13:27:54.664Z,10.35
2018-11-07T13:30:24.601Z,7.35
2018-11-07T13:32:54.051Z,11.38
2018-11-07T13:35:23.636Z,8.60
2018-11-07T13:37:53.660Z,9.17
2018-11-07T13:40:24.360Z,14.25
2018-11-07T13:42:53.818Z,11.40
2018-11-07T13:45:24.097Z,9.55
2018-11-07T13:47:54.651Z,11.18
2018-11-07T13:50:24.128Z,8.88
2018-11-07T13:52:53.580Z,8.20
2018-11-07T13:55:23.052Z,10.20
2018-11-07T13:57:52.527Z,11.75
2018-11-07T14:00:23.252Z,7.62
2018-11-07T14:02:53.948Z,12.88
2018-11-07T14:05:23.461Z,11.33
2018-11-07T14:07:52.876Z,7.62
2018-11-07T14:10:23.681Z,8.50
2018-11-07T14:12:53.559Z,10.67
2018-11-07T14:15:23.200Z,11.15
2018-11-07T14:17:52.827Z,6.60
2018-11-07T14:20:23.903Z,8.20
2018-11-07T14:22:53.413Z,7.10
2018-11-07T14:25:22.977Z,7.33
2018-11-07T14:27:52.605Z,7.80
2018-11-07T14:30:21.924Z,6.00
2018-11-07T14:32:57.740Z,4.75
2018-11-07T14:35:27.374Z,8.75
2018-11-07T14:37:57.715Z,12.85
2018-11-07T14:40:27.233Z,5.73
2018-11-07T14:42:56.692Z,6.47
2018-11-07T14:45:26.218Z,6.20
2018-11-07T14:47:55.729Z,9.77
2018-11-07T14:50:25.155Z,6.55
2018-11-07T14:52:54.595Z,8.60
2018-11-07T14:55:24.081Z,8.55
2018-11-07T14:57:53.586Z,7.53
2018-11-07T15:00:23.022Z,8.48
2018-11-07T15:02:52.602Z,5.80
2018-11-07T15:05:22.206Z,5.47
2018-11-07T15:07:51.665Z,10.20
2018-11-07T15:10:21.227Z,8.30
2018-11-07T15:12:50.684Z,8.13
2018-11-07T15:15:20.435Z,6.92
2018-11-07T15:17:49.881Z,5.85
2018-11-07T15:20:19.509Z,6.03
2018-11-07T15:22:49.095Z,4.00
2018-11-07T15:25:18.919Z,5.90
2018-11-07T15:27:48.596Z,5.83
2018-11-07T15:30:18.406Z,5.42
2018-11-07T15:32:47.996Z,4.80
2018-11-07T15:35:17.412Z,7.90
2018-11-07T15:37:46.817Z,4.90
2018-11-07T15:40:17.382Z,8.30
2018-11-07T15:42:47.264Z,5.37
2018-11-07T15:45:18.148Z,6.45
2018-11-07T15:47:47.528Z,8.13
2018-11-07T15:50:22.318Z,5.58
2018-11-07T15:52:51.732Z,5.60
2018-11-07T15:55:21.256Z,6.40
2018-11-07T15:57:50.741Z,10.65
2018-11-07T16:00:20.279Z,6.85
2018-11-07T16:02:49.778Z,7.92
2018-11-07T16:05:19.233Z,5.15
2018-11-07T16:07:48.617Z,2.95
2018-11-07T16:10:18.078Z,4.70
2018-11-07T16:12:47.471Z,7.97
2018-11-07T16:15:18.071Z,5.85
2018-11-07T16:17:47.519Z,5.85
2018-11-07T16:20:18.420Z,6.80
2018-11-07T16:22:48.615Z,6.95
2018-11-07T16:25:17.993Z,10.88
2018-11-07T16:27:47.440Z,4.80
2018-11-07T16:30:18.279Z,6.03
2018-11-07T16:32:47.651Z,9.20
2018-11-07T16:35:17.196Z,5.90
2018-11-07T16:37:46.695Z,6.10
2018-11-07T16:40:17.327Z,5.47
2018-11-07T16:42:46.907Z,9.13
2018-11-07T16:45:17.247Z,4.53
2018-11-07T16:47:46.790Z,4.62
2018-11-07T16:50:16.872Z,7.17
2018-11-07T16:52:46.417Z,9.13
2018-11-07T16:55:16.080Z,9.35
2018-11-07T16:57:45.494Z,7.03
2018-11-07T17:00:17.287Z,7.03
2018-11-07T17:02:47.027Z,5.55
2018-11-07T17:05:16.786Z,5.58
2018-11-07T17:07:46.818Z,7.67
2018-11-07T17:10:16.615Z,6.00
2018-11-07T17:12:46.217Z,6.57
2018-11-07T17:15:15.647Z,7.65
2018-11-07T17:17:45.103Z,5.83
2018-11-07T17:20:15.569Z,6.42
2018-11-07T17:22:45.178Z,5.55
2018-11-07T17:25:16.716Z,11.90
2018-11-07T17:27:46.251Z,8.00
2018-11-07T17:30:16.883Z,7.30
2018-11-07T17:32:46.265Z,8.30
2018-11-07T17:35:17.040Z,6.08
2018-11-07T17:37:46.703Z,8.13
2018-11-07T17:40:19.627Z,6.92
2018-11-07T17:42:49.567Z,8.90
2018-11-07T17:45:20.614Z,7.40
2018-11-07T17:47:51.056Z,8.93
2018-11-07T17:50:21.294Z,9.63
2018-11-07T17:52:51.206Z,9.58
2018-11-07T17:55:21.429Z,8.40
2018-11-07T17:57:50.915Z,7.67
2018-11-07T18:00:21.751Z,9.33
2018-11-07T18:02:51.132Z,10.10
2018-11-07T18:05:20.518Z,10.78
2018-11-07T18:07:49.948Z,4.62
2018-11-07T18:10:19.450Z,6.75
2018-11-07T18:12:48.839Z,9.40
2018-11-07T18:15:18.272Z,8.20
2018-11-07T18:17:47.637Z,13.43
2018-11-07T18:20:17.799Z,10.80
2018-11-07T18:22:47.378Z,12.20
2018-11-07T18:25:17.600Z,7.62
2018-11-07T18:27:47.029Z,7.90
2018-11-07T18:30:17.447Z,6.70
2018-11-07T18:32:47.565Z,11.18
2018-11-07T18:35:18.423Z,8.45
2018-11-07T18:37:48.062Z,9.43
2018-11-07T18:40:18.922Z,12.47
2018-11-07T18:42:48.429Z,8.20
2018-11-07T18:45:17.889Z,9.43
2018-11-07T18:47:47.825Z,6.47
2018-11-07T18:50:18.853Z,7.50
2018-11-07T18:52:48.200Z,6.83
2018-11-07T18:55:18.143Z,11.13
2018-11-07T18:57:47.976Z,11.00
2018-11-07T19:00:18.786Z,11.00
2018-11-07T19:02:48.894Z,10.82
2018-11-07T19:05:18.511Z,15.68
2018-11-07T19:07:47.912Z,10.80
2018-11-07T19:10:18.803Z,10.80
2018-11-07T19:12:48.650Z,13.55
2018-11-07T19:15:18.554Z,11.30
2018-11-07T19:17:49.033Z,9.40
2018-11-07T19:20:18.885Z,5.45
2018-11-07T19:22:48.376Z,10.78
2018-11-07T19:25:19.315Z,10.82
2018-11-07T19:27:48.783Z,8.30
2018-11-07T19:30:21.454Z,9.08
2018-11-07T19:32:51.957Z,10.28
2018-11-07T19:35:21.855Z,9.20
2018-11-07T19:37:51.861Z,24.92
2018-11-07T19:40:22.836Z,5.85
2018-11-07T19:42:52.284Z,6.28
2018-11-07T19:45:22.487Z,5.85
2018-11-07T19:47:52.391Z,4.90
2018-11-07T19:50:22.640Z,3.90
2018-11-07T19:52:52.625Z,4.90
2018-11-07T19:55:23.886Z,8.18
2018-11-07T19:57:58.104Z,9.88
2018-11-07T20:00:27.867Z,8.23
2018-11-07T20:02:58.317Z,9.40
2018-11-07T20:05:27.898Z,10.60
2018-11-07T20:07:58.349Z,9.60
2018-11-07T20:10:28.253Z,12.15
2018-11-07T20:12:58.636Z,8.60
2018-11-07T20:15:28.300Z,7.43
2018-11-07T20:17:57.898Z,9.25
2018-11-07T20:20:27.395Z,6.63
2018-11-07T20:22:57.006Z,5.95
2018-11-07T20:25:27.458Z,9.55
2018-11-07T20:27:56.923Z,4.85
2018-11-07T20:30:26.572Z,7.67
2018-11-07T20:32:56.194Z,5.50
2018-11-07T20:35:25.816Z,8.53
2018-11-07T20:37:55.658Z,6.20
2018-11-07T20:40:25.316Z,4.92
2018-11-07T20:42:54.921Z,2.87
2018-11-07T20:45:24.615Z,7.05
2018-11-07T20:47:54.123Z,4.07
2018-11-07T20:50:23.867Z,4.28
2018-11-07T20:52:54.576Z,8.40
2018-11-07T20:55:24.156Z,8.15
2018-11-07T20:57:53.692Z,9.05
2018-11-07T21:00:24.146Z,10.60
2018-11-07T21:02:54.020Z,8.03
2018-11-07T21:05:23.615Z,10.88
2018-11-07T21:07:53.401Z,13.15
2018-11-07T21:10:23.237Z,12.30
2018-11-07T21:12:52.947Z,8.35
2018-11-07T21:15:22.866Z,15.53
2018-11-07T21:17:52.612Z,9.08
2018-11-07T21:20:22.621Z,9.63
2018-11-07T21:22:56.817Z,11.87
2018-11-07T21:25:26.603Z,11.97
2018-11-07T21:30:59.968Z,13.80
2018-11-07T21:33:29.492Z,8.70
2018-11-07T21:35:59.211Z,10.38
2018-11-07T21:38:29.104Z,10.30
2018-11-07T21:41:05.365Z,10.68
2018-11-07T21:43:34.975Z,12.17
2018-11-07T21:46:06.799Z,12.25
2018-11-07T21:48:36.706Z,10.32
2018-11-07T21:51:06.845Z,10.35
2018-11-07T21:53:36.457Z,12.37
2018-11-07T21:56:06.618Z,9.53
2018-11-07T21:58:36.290Z,8.95
2018-11-07T22:01:05.979Z,12.35
2018-11-07T22:03:35.689Z,8.33
2018-11-07T22:06:05.654Z,11.38
2018-11-07T22:08:35.289Z,14.28
2018-11-07T22:11:04.935Z,8.93
2018-11-07T22:13:34.567Z,7.87
2018-11-07T22:16:04.282Z,6.95
2018-11-07T22:18:33.965Z,6.10
2018-11-07T22:21:03.630Z,6.47
2018-11-07T22:23:33.203Z,9.38
2018-11-07T22:26:02.920Z,10.28
2018-11-07T22:28:32.493Z,6.40
2018-11-07T22:31:02.174Z,5.97
2018-11-07T22:33:31.759Z,5.17
2018-11-07T22:36:01.458Z,5.08
2018-11-07T22:38:31.017Z,5.08
2018-11-07T22:41:00.746Z,2.80
2018-11-07T22:43:30.477Z,4.40
2018-11-07T22:46:00.142Z,5.53
2018-11-07T22:48:29.796Z,3.20
2018-11-07T22:50:59.390Z,4.55
2018-11-07T22:53:29.078Z,5.85
2018-11-07T22:55:58.673Z,6.60
2018-11-07T22:58:28.363Z,4.40
2018-11-07T23:01:03.298Z,6.97
2018-11-07T23:03:33.477Z,8.73
2018-11-07T23:06:03.065Z,8.63
2018-11-07T23:08:32.746Z,9.53
2018-11-07T23:11:02.374Z,10.40
2018-11-07T23:13:32.011Z,8.10
2018-11-07T23:16:01.594Z,9.83
2018-11-07T23:18:31.232Z,9.73
2018-11-07T23:21:00.847Z,6.73
2018-11-07T23:23:30.522Z,8.13
2018-11-07T23:26:00.092Z,7.50
2018-11-07T23:28:29.762Z,9.30
2018-11-07T23:30:59.276Z,6.42
2018-11-07T23:33:28.892Z,7.90
2018-11-07T23:35:58.513Z,5.17
2018-11-07T23:38:28.160Z,6.33
2018-11-07T23:40:57.918Z,5.85
2018-11-07T23:43:27.633Z,7.87
2018-11-07T23:45:57.338Z,6.67
2018-11-07T23:48:26.948Z,5.70
2018-11-07T23:50:56.609Z,4.95
2018-11-07T23:53:26.430Z,4.37
2018-11-07T23:55:56.045Z,5.00
2018-11-07T23:58:25.762Z,4.03
